sensor_id;sensor_type;location;lat;lon;timestamp;P1;durP1;ratioP1;P2;durP2;ratioP2
1276;SDS011;631;51.024;13.826;2024-03-29T00:01:50;10.30;;;9.80;;
1276;SDS011;631;51.024;13.826;2024-03-29T00:04:15;10.60;;;10.10;;
1276;SDS011;631;51.024;13.826;2024-03-29T00:06:41;10.70;;;10.20;;
1276;SDS011;631;51.024;13.826;2024-03-29T00:09:06;10.97;;;10.37;;
1276;SDS011;631;51.024;13.826;2024-03-29T00:11:32;11.10;;;10.50;;
1276;SDS011;631;51.024;13.826;2024-03-29T00:13:58;10.80;;;10.30;;
1276;SDS011;631;51.024;13.826;2024-03-29T00:16:23;10.50;;;10.00;;
1276;SDS011;631;51.024;13.826;2024-03-29T00:18:50;11.30;;;10.70;;
1276;SDS011;631;51.024;13.826;2024-03-29T00:21:17;10.90;;;10.40;;
1276;SDS011;631;51.024;13.826;2024-03-29T00:23:43;9.70;;;9.30;;
1276;SDS011;631;51.024;13.826;2024-03-29T00:26:10;10.20;;;9.80;;
1276;SDS011;631;51.024;13.826;2024-03-29T00:28:36;10.17;;;9.73;;
1276;SDS011;631;51.024;13.826;2024-03-29T00:31:02;10.57;;;10.07;;
1276;SDS011;631;51.024;13.826;2024-03-29T00:33:28;10.20;;;9.70;;
1276;SDS011;631;51.024;13.826;2024-03-29T00:35:53;10.87;;;10.23;;
1276;SDS011;631;51.024;13.826;2024-03-29T00:38:19;10.60;;;10.20;;
1276;SDS011;631;51.024;13.826;2024-03-29T00:40:44;10.97;;;10.47;;
1276;SDS011;631;51.024;13.826;2024-03-29T00:43:10;11.70;;;11.10;;
1276;SDS011;631;51.024;13.826;2024-03-29T00:45:36;11.17;;;10.67;;
1276;SDS011;631;51.024;13.826;2024-03-29T00:48:01;11.00;;;10.50;;
1276;SDS011;631;51.024;13.826;2024-03-29T00:50:27;11.03;;;10.47;;
1276;SDS011;631;51.024;13.826;2024-03-29T00:52:53;10.50;;;10.00;;
1276;SDS011;631;51.024;13.826;2024-03-29T00:55:18;10.77;;;10.27;;
1276;SDS011;631;51.024;13.826;2024-03-29T00:57:44;11.40;;;10.80;;
1276;SDS011;631;51.024;13.826;2024-03-29T01:00:09;11.87;;;11.27;;
1276;SDS011;631;51.024;13.826;2024-03-29T01:02:35;11.10;;;10.60;;
1276;SDS011;631;51.024;13.826;2024-03-29T01:05:01;11.73;;;11.03;;
1276;SDS011;631;51.024;13.826;2024-03-29T01:07:27;11.47;;;10.77;;
1276;SDS011;631;51.024;13.826;2024-03-29T01:09:53;11.20;;;10.70;;
1276;SDS011;631;51.024;13.826;2024-03-29T01:12:19;11.10;;;10.50;;
1276;SDS011;631;51.024;13.826;2024-03-29T01:14:45;11.37;;;10.73;;
1276;SDS011;631;51.024;13.826;2024-03-29T01:17:11;11.10;;;10.60;;
1276;SDS011;631;51.024;13.826;2024-03-29T01:19:36;10.53;;;10.03;;
1276;SDS011;631;51.024;13.826;2024-03-29T01:22:02;11.10;;;10.33;;
1276;SDS011;631;51.024;13.826;2024-03-29T01:24:29;11.40;;;10.70;;
1276;SDS011;631;51.024;13.826;2024-03-29T01:26:54;11.77;;;11.07;;
1276;SDS011;631;51.024;13.826;2024-03-29T01:29:20;11.37;;;10.87;;
1276;SDS011;631;51.024;13.826;2024-03-29T01:31:46;11.20;;;10.60;;
1276;SDS011;631;51.024;13.826;2024-03-29T01:34:11;10.87;;;10.37;;
1276;SDS011;631;51.024;13.826;2024-03-29T01:36:37;10.20;;;9.70;;
1276;SDS011;631;51.024;13.826;2024-03-29T01:39:03;11.57;;;10.90;;
1276;SDS011;631;51.024;13.826;2024-03-29T01:41:28;11.37;;;10.77;;
1276;SDS011;631;51.024;13.826;2024-03-29T01:43:54;10.80;;;10.30;;
1276;SDS011;631;51.024;13.826;2024-03-29T01:46:21;11.73;;;10.93;;
1276;SDS011;631;51.024;13.826;2024-03-29T01:48:48;11.73;;;11.03;;
1276;SDS011;631;51.024;13.826;2024-03-29T01:51:18;10.53;;;10.03;;
1276;SDS011;631;51.024;13.826;2024-03-29T01:53:45;10.90;;;10.30;;
1276;SDS011;631;51.024;13.826;2024-03-29T01:56:12;10.87;;;10.37;;
1276;SDS011;631;51.024;13.826;2024-03-29T01:58:40;10.93;;;10.43;;
1276;SDS011;631;51.024;13.826;2024-03-29T02:01:07;10.87;;;10.27;;
1276;SDS011;631;51.024;13.826;2024-03-29T02:03:33;11.50;;;10.90;;
1276;SDS011;631;51.024;13.826;2024-03-29T02:05:59;11.03;;;10.43;;
1276;SDS011;631;51.024;13.826;2024-03-29T02:08:26;11.37;;;10.80;;
1276;SDS011;631;51.024;13.826;2024-03-29T02:10:53;12.07;;;11.27;;
1276;SDS011;631;51.024;13.826;2024-03-29T02:13:19;11.60;;;10.80;;
1276;SDS011;631;51.024;13.826;2024-03-29T02:15:45;11.33;;;10.83;;
1276;SDS011;631;51.024;13.826;2024-03-29T02:18:10;11.40;;;10.70;;
1276;SDS011;631;51.024;13.826;2024-03-29T02:20:36;11.30;;;10.60;;
1276;SDS011;631;51.024;13.826;2024-03-29T02:23:20;12.07;;;11.30;;
1276;SDS011;631;51.024;13.826;2024-03-29T02:25:51;11.80;;;11.00;;
1276;SDS011;631;51.024;13.826;2024-03-29T02:28:16;11.00;;;10.20;;
1276;SDS011;631;51.024;13.826;2024-03-29T02:30:42;11.13;;;10.43;;
1276;SDS011;631;51.024;13.826;2024-03-29T02:33:08;10.97;;;10.47;;
1276;SDS011;631;51.024;13.826;2024-03-29T02:35:33;10.93;;;10.33;;
1276;SDS011;631;51.024;13.826;2024-03-29T02:37:59;11.00;;;10.40;;
1276;SDS011;631;51.024;13.826;2024-03-29T02:40:24;10.87;;;10.37;;
1276;SDS011;631;51.024;13.826;2024-03-29T02:42:50;11.10;;;10.30;;
1276;SDS011;631;51.024;13.826;2024-03-29T02:45:16;11.23;;;10.40;;
1276;SDS011;631;51.024;13.826;2024-03-29T02:47:42;10.83;;;10.27;;
1276;SDS011;631;51.024;13.826;2024-03-29T02:50:09;10.33;;;9.83;;
1276;SDS011;631;51.024;13.826;2024-03-29T02:52:35;10.27;;;9.77;;
1276;SDS011;631;51.024;13.826;2024-03-29T02:55:01;11.00;;;10.40;;
1276;SDS011;631;51.024;13.826;2024-03-29T02:57:27;11.20;;;10.40;;
1276;SDS011;631;51.024;13.826;2024-03-29T02:59:53;10.90;;;10.40;;
1276;SDS011;631;51.024;13.826;2024-03-29T03:02:18;11.53;;;10.70;;
1276;SDS011;631;51.024;13.826;2024-03-29T03:04:44;11.63;;;10.90;;
1276;SDS011;631;51.024;13.826;2024-03-29T03:07:09;12.07;;;11.30;;
1276;SDS011;631;51.024;13.826;2024-03-29T03:09:54;11.45;;;10.95;;
1276;SDS011;631;51.024;13.826;2024-03-29T03:12:37;11.60;;;11.00;;
1276;SDS011;631;51.024;13.826;2024-03-29T03:15:03;12.17;;;11.27;;
1276;SDS011;631;51.024;13.826;2024-03-29T03:17:30;11.40;;;10.80;;
1276;SDS011;631;51.024;13.826;2024-03-29T03:19:56;11.73;;;10.93;;
1276;SDS011;631;51.024;13.826;2024-03-29T03:22:22;11.90;;;11.10;;
1276;SDS011;631;51.024;13.826;2024-03-29T03:24:48;10.97;;;10.37;;
1276;SDS011;631;51.024;13.826;2024-03-29T03:27:13;11.60;;;10.90;;
1276;SDS011;631;51.024;13.826;2024-03-29T03:29:39;11.43;;;10.83;;
1276;SDS011;631;51.024;13.826;2024-03-29T03:32:05;12.00;;;11.27;;
1276;SDS011;631;51.024;13.826;2024-03-29T03:34:31;11.10;;;10.50;;
1276;SDS011;631;51.024;13.826;2024-03-29T03:36:57;11.87;;;11.20;;
1276;SDS011;631;51.024;13.826;2024-03-29T03:39:22;11.47;;;10.90;;
1276;SDS011;631;51.024;13.826;2024-03-29T03:41:48;11.70;;;11.00;;
1276;SDS011;631;51.024;13.826;2024-03-29T03:44:15;11.27;;;10.63;;
1276;SDS011;631;51.024;13.826;2024-03-29T03:46:41;11.40;;;10.80;;
1276;SDS011;631;51.024;13.826;2024-03-29T03:49:06;11.10;;;10.50;;
1276;SDS011;631;51.024;13.826;2024-03-29T03:51:32;11.13;;;10.43;;
1276;SDS011;631;51.024;13.826;2024-03-29T03:53:57;10.63;;;10.20;;
1276;SDS011;631;51.024;13.826;2024-03-29T03:56:23;10.83;;;10.23;;
1276;SDS011;631;51.024;13.826;2024-03-29T03:58:49;10.60;;;10.10;;
1276;SDS011;631;51.024;13.826;2024-03-29T04:01:14;10.87;;;10.17;;
1276;SDS011;631;51.024;13.826;2024-03-29T04:03:40;11.43;;;10.83;;
1276;SDS011;631;51.024;13.826;2024-03-29T04:06:06;10.97;;;10.27;;
1276;SDS011;631;51.024;13.826;2024-03-29T04:08:32;11.33;;;10.73;;
1276;SDS011;631;51.024;13.826;2024-03-29T04:11:01;10.83;;;10.30;;
1276;SDS011;631;51.024;13.826;2024-03-29T04:13:30;10.80;;;10.40;;
1276;SDS011;631;51.024;13.826;2024-03-29T04:16:02;11.17;;;10.57;;
1276;SDS011;631;51.024;13.826;2024-03-29T04:18:28;11.30;;;10.70;;
1276;SDS011;631;51.024;13.826;2024-03-29T04:21:00;11.40;;;10.80;;
1276;SDS011;631;51.024;13.826;2024-03-29T04:23:27;11.27;;;10.60;;
1276;SDS011;631;51.024;13.826;2024-03-29T04:25:53;12.10;;;11.30;;
1276;SDS011;631;51.024;13.826;2024-03-29T04:28:20;11.23;;;10.73;;
1276;SDS011;631;51.024;13.826;2024-03-29T04:30:54;11.73;;;11.10;;
1276;SDS011;631;51.024;13.826;2024-03-29T04:33:20;12.23;;;11.53;;
1276;SDS011;631;51.024;13.826;2024-03-29T04:36:04;11.70;;;11.10;;
1276;SDS011;631;51.024;13.826;2024-03-29T04:38:30;11.63;;;11.00;;
1276;SDS011;631;51.024;13.826;2024-03-29T04:40:57;12.20;;;11.50;;
1276;SDS011;631;51.024;13.826;2024-03-29T04:43:24;11.23;;;10.67;;
1276;SDS011;631;51.024;13.826;2024-03-29T04:46:01;11.00;;;10.47;;
1276;SDS011;631;51.024;13.826;2024-03-29T04:48:29;11.30;;;10.70;;
1276;SDS011;631;51.024;13.826;2024-03-29T04:50:55;10.97;;;10.43;;
1276;SDS011;631;51.024;13.826;2024-03-29T04:53:21;10.77;;;10.27;;
1276;SDS011;631;51.024;13.826;2024-03-29T04:55:52;11.50;;;10.80;;
1276;SDS011;631;51.024;13.826;2024-03-29T04:58:19;10.40;;;9.90;;
1276;SDS011;631;51.024;13.826;2024-03-29T05:00:44;10.87;;;10.33;;
1276;SDS011;631;51.024;13.826;2024-03-29T05:03:10;10.67;;;10.20;;
1276;SDS011;631;51.024;13.826;2024-03-29T05:05:35;10.67;;;10.17;;
1276;SDS011;631;51.024;13.826;2024-03-29T05:08:01;10.57;;;10.07;;
1276;SDS011;631;51.024;13.826;2024-03-29T05:10:26;10.97;;;10.47;;
1276;SDS011;631;51.024;13.826;2024-03-29T05:12:52;11.13;;;10.63;;
1276;SDS011;631;51.024;13.826;2024-03-29T05:15:19;11.20;;;10.70;;
1276;SDS011;631;51.024;13.826;2024-03-29T05:17:44;10.90;;;10.40;;
1276;SDS011;631;51.024;13.826;2024-03-29T05:20:10;11.30;;;10.70;;
1276;SDS011;631;51.024;13.826;2024-03-29T05:22:36;10.83;;;10.13;;
1276;SDS011;631;51.024;13.826;2024-03-29T05:25:02;11.20;;;10.50;;
1276;SDS011;631;51.024;13.826;2024-03-29T05:27:29;11.00;;;10.40;;
1276;SDS011;631;51.024;13.826;2024-03-29T05:29:54;10.70;;;10.20;;
1276;SDS011;631;51.024;13.826;2024-03-29T05:32:20;10.07;;;9.60;;
1276;SDS011;631;51.024;13.826;2024-03-29T05:34:46;11.07;;;10.30;;
1276;SDS011;631;51.024;13.826;2024-03-29T05:37:11;10.53;;;9.93;;
1276;SDS011;631;51.024;13.826;2024-03-29T05:39:37;11.50;;;10.80;;
1276;SDS011;631;51.024;13.826;2024-03-29T05:42:03;11.30;;;10.70;;
1276;SDS011;631;51.024;13.826;2024-03-29T05:44:28;10.70;;;10.20;;
1276;SDS011;631;51.024;13.826;2024-03-29T05:46:54;10.67;;;10.00;;
1276;SDS011;631;51.024;13.826;2024-03-29T05:49:20;10.70;;;10.20;;
1276;SDS011;631;51.024;13.826;2024-03-29T05:51:45;11.10;;;10.50;;
1276;SDS011;631;51.024;13.826;2024-03-29T05:54:11;11.20;;;10.70;;
1276;SDS011;631;51.024;13.826;2024-03-29T05:56:37;11.00;;;10.50;;
1276;SDS011;631;51.024;13.826;2024-03-29T05:59:02;10.63;;;10.03;;
1276;SDS011;631;51.024;13.826;2024-03-29T06:01:28;10.30;;;9.90;;
1276;SDS011;631;51.024;13.826;2024-03-29T06:03:55;10.07;;;9.67;;
1276;SDS011;631;51.024;13.826;2024-03-29T06:06:21;10.60;;;10.10;;
1276;SDS011;631;51.024;13.826;2024-03-29T06:08:50;11.03;;;10.43;;
1276;SDS011;631;51.024;13.826;2024-03-29T06:11:16;10.50;;;10.00;;
1276;SDS011;631;51.024;13.826;2024-03-29T06:13:42;10.67;;;10.03;;
1276;SDS011;631;51.024;13.826;2024-03-29T06:16:20;10.50;;;10.00;;
1276;SDS011;631;51.024;13.826;2024-03-29T06:19:05;10.40;;;9.80;;
1276;SDS011;631;51.024;13.826;2024-03-29T06:21:30;10.07;;;9.57;;
1276;SDS011;631;51.024;13.826;2024-03-29T06:24:06;10.57;;;9.87;;
1276;SDS011;631;51.024;13.826;2024-03-29T06:26:32;10.50;;;9.90;;
1276;SDS011;631;51.024;13.826;2024-03-29T06:28:59;10.20;;;9.80;;
1276;SDS011;631;51.024;13.826;2024-03-29T06:31:26;10.30;;;9.90;;
1276;SDS011;631;51.024;13.826;2024-03-29T06:33:51;9.93;;;9.53;;
1276;SDS011;631;51.024;13.826;2024-03-29T06:36:17;10.67;;;10.17;;
1276;SDS011;631;51.024;13.826;2024-03-29T06:38:43;10.73;;;10.23;;
1276;SDS011;631;51.024;13.826;2024-03-29T06:41:09;11.10;;;10.50;;
1276;SDS011;631;51.024;13.826;2024-03-29T06:43:35;10.60;;;10.10;;
1276;SDS011;631;51.024;13.826;2024-03-29T06:46:00;11.13;;;10.50;;
1276;SDS011;631;51.024;13.826;2024-03-29T06:48:28;10.20;;;9.80;;
1276;SDS011;631;51.024;13.826;2024-03-29T06:50:55;10.80;;;10.20;;
1276;SDS011;631;51.024;13.826;2024-03-29T06:53:21;11.00;;;10.40;;
1276;SDS011;631;51.024;13.826;2024-03-29T06:55:47;10.30;;;9.90;;
1276;SDS011;631;51.024;13.826;2024-03-29T06:58:14;10.87;;;10.27;;
1276;SDS011;631;51.024;13.826;2024-03-29T07:00:40;10.73;;;10.23;;
1276;SDS011;631;51.024;13.826;2024-03-29T07:03:06;10.40;;;9.80;;
1276;SDS011;631;51.024;13.826;2024-03-29T07:05:32;10.73;;;10.23;;
1276;SDS011;631;51.024;13.826;2024-03-29T07:07:57;10.47;;;9.97;;
1276;SDS011;631;51.024;13.826;2024-03-29T07:10:24;10.03;;;9.63;;
1276;SDS011;631;51.024;13.826;2024-03-29T07:12:50;10.60;;;10.10;;
1276;SDS011;631;51.024;13.826;2024-03-29T07:15:16;10.70;;;10.20;;
1276;SDS011;631;51.024;13.826;2024-03-29T07:17:42;10.70;;;10.20;;
1276;SDS011;631;51.024;13.826;2024-03-29T07:20:09;9.60;;;9.20;;
1276;SDS011;631;51.024;13.826;2024-03-29T07:22:35;9.93;;;9.53;;
1276;SDS011;631;51.024;13.826;2024-03-29T07:25:00;10.63;;;10.13;;
1276;SDS011;631;51.024;13.826;2024-03-29T07:27:26;10.53;;;10.03;;
1276;SDS011;631;51.024;13.826;2024-03-29T07:29:54;10.23;;;9.83;;
1276;SDS011;631;51.024;13.826;2024-03-29T07:32:20;10.80;;;10.30;;
1276;SDS011;631;51.024;13.826;2024-03-29T07:34:45;10.10;;;9.70;;
1276;SDS011;631;51.024;13.826;2024-03-29T07:37:11;9.73;;;9.33;;
1276;SDS011;631;51.024;13.826;2024-03-29T07:39:40;10.00;;;9.60;;
1276;SDS011;631;51.024;13.826;2024-03-29T07:42:07;10.67;;;10.17;;
1276;SDS011;631;51.024;13.826;2024-03-29T07:44:33;10.70;;;10.20;;
1276;SDS011;631;51.024;13.826;2024-03-29T07:46:59;10.50;;;10.10;;
1276;SDS011;631;51.024;13.826;2024-03-29T07:49:24;9.80;;;9.40;;
1276;SDS011;631;51.024;13.826;2024-03-29T07:51:50;10.10;;;9.70;;
1276;SDS011;631;51.024;13.826;2024-03-29T07:54:15;10.83;;;10.33;;
1276;SDS011;631;51.024;13.826;2024-03-29T07:56:41;9.07;;;8.67;;
1276;SDS011;631;51.024;13.826;2024-03-29T07:59:07;9.80;;;9.40;;
1276;SDS011;631;51.024;13.826;2024-03-29T08:01:32;10.33;;;9.83;;
1276;SDS011;631;51.024;13.826;2024-03-29T08:03:58;10.40;;;10.00;;
1276;SDS011;631;51.024;13.826;2024-03-29T08:06:23;10.40;;;9.90;;
1276;SDS011;631;51.024;13.826;2024-03-29T08:08:49;10.20;;;9.80;;
1276;SDS011;631;51.024;13.826;2024-03-29T08:11:18;10.17;;;9.70;;
1276;SDS011;631;51.024;13.826;2024-03-29T08:13:43;10.20;;;9.70;;
1276;SDS011;631;51.024;13.826;2024-03-29T08:16:09;9.90;;;9.50;;
1276;SDS011;631;51.024;13.826;2024-03-29T08:18:35;10.13;;;9.63;;
1276;SDS011;631;51.024;13.826;2024-03-29T08:21:02;10.20;;;9.80;;
1276;SDS011;631;51.024;13.826;2024-03-29T08:23:28;10.50;;;10.00;;
1276;SDS011;631;51.024;13.826;2024-03-29T08:25:54;9.90;;;9.40;;
1276;SDS011;631;51.024;13.826;2024-03-29T08:28:21;10.37;;;9.80;;
1276;SDS011;631;51.024;13.826;2024-03-29T08:30:57;10.13;;;9.53;;
1276;SDS011;631;51.024;13.826;2024-03-29T08:33:23;10.93;;;10.43;;
1276;SDS011;631;51.024;13.826;2024-03-29T08:35:49;10.50;;;10.10;;
1276;SDS011;631;51.024;13.826;2024-03-29T08:38:15;10.70;;;10.20;;
1276;SDS011;631;51.024;13.826;2024-03-29T08:40:41;10.10;;;9.60;;
1276;SDS011;631;51.024;13.826;2024-03-29T08:43:08;10.87;;;10.37;;
1276;SDS011;631;51.024;13.826;2024-03-29T08:45:34;11.30;;;10.40;;
1276;SDS011;631;51.024;13.826;2024-03-29T08:48:06;10.40;;;10.00;;
1276;SDS011;631;51.024;13.826;2024-03-29T08:50:34;10.57;;;10.00;;
1276;SDS011;631;51.024;13.826;2024-03-29T08:53:00;9.80;;;9.30;;
1276;SDS011;631;51.024;13.826;2024-03-29T08:55:28;10.27;;;9.83;;
1276;SDS011;631;51.024;13.826;2024-03-29T08:57:57;9.90;;;9.50;;
1276;SDS011;631;51.024;13.826;2024-03-29T09:00:24;9.03;;;8.63;;
1276;SDS011;631;51.024;13.826;2024-03-29T09:02:50;8.80;;;8.43;;
1276;SDS011;631;51.024;13.826;2024-03-29T09:05:16;10.50;;;10.00;;
1276;SDS011;631;51.024;13.826;2024-03-29T09:07:41;10.37;;;9.77;;
1276;SDS011;631;51.024;13.826;2024-03-29T09:10:07;9.83;;;9.43;;
1276;SDS011;631;51.024;13.826;2024-03-29T09:12:33;10.17;;;9.70;;
1276;SDS011;631;51.024;13.826;2024-03-29T09:14:58;10.33;;;9.83;;
1276;SDS011;631;51.024;13.826;2024-03-29T09:17:24;9.90;;;9.40;;
1276;SDS011;631;51.024;13.826;2024-03-29T09:19:51;9.83;;;9.33;;
1276;SDS011;631;51.024;13.826;2024-03-29T09:22:19;9.87;;;9.47;;
1276;SDS011;631;51.024;13.826;2024-03-29T09:24:45;9.17;;;8.77;;
1276;SDS011;631;51.024;13.826;2024-03-29T09:27:10;9.70;;;9.20;;
1276;SDS011;631;51.024;13.826;2024-03-29T09:29:36;9.00;;;8.60;;
1276;SDS011;631;51.024;13.826;2024-03-29T09:32:02;9.57;;;9.10;;
1276;SDS011;631;51.024;13.826;2024-03-29T09:34:28;9.50;;;9.00;;
1276;SDS011;631;51.024;13.826;2024-03-29T09:36:53;9.50;;;9.10;;
1276;SDS011;631;51.024;13.826;2024-03-29T09:39:19;9.40;;;8.90;;
1276;SDS011;631;51.024;13.826;2024-03-29T09:41:45;9.50;;;9.10;;
1276;SDS011;631;51.024;13.826;2024-03-29T09:44:11;9.53;;;9.13;;
1276;SDS011;631;51.024;13.826;2024-03-29T09:46:37;9.27;;;8.87;;
1276;SDS011;631;51.024;13.826;2024-03-29T09:49:05;9.97;;;9.57;;
1276;SDS011;631;51.024;13.826;2024-03-29T09:51:32;9.50;;;9.00;;
1276;SDS011;631;51.024;13.826;2024-03-29T09:53:59;10.10;;;9.70;;
1276;SDS011;631;51.024;13.826;2024-03-29T09:56:25;9.13;;;8.53;;
1276;SDS011;631;51.024;13.826;2024-03-29T09:58:52;9.63;;;9.13;;
1276;SDS011;631;51.024;13.826;2024-03-29T10:01:18;9.40;;;9.00;;
1276;SDS011;631;51.024;13.826;2024-03-29T10:03:48;9.57;;;9.17;;
1276;SDS011;631;51.024;13.826;2024-03-29T10:06:18;9.27;;;8.97;;
1276;SDS011;631;51.024;13.826;2024-03-29T10:08:44;9.60;;;9.20;;
1276;SDS011;631;51.024;13.826;2024-03-29T10:11:10;10.20;;;9.70;;
1276;SDS011;631;51.024;13.826;2024-03-29T10:13:36;10.50;;;9.90;;
1276;SDS011;631;51.024;13.826;2024-03-29T10:16:03;10.30;;;9.80;;
1276;SDS011;631;51.024;13.826;2024-03-29T10:18:29;10.07;;;9.43;;
1276;SDS011;631;51.024;13.826;2024-03-29T10:23:27;10.50;;;10.00;;
1276;SDS011;631;51.024;13.826;2024-03-29T10:25:53;10.30;;;9.70;;
1276;SDS011;631;51.024;13.826;2024-03-29T10:28:19;9.77;;;9.37;;
1276;SDS011;631;51.024;13.826;2024-03-29T10:30:44;10.07;;;9.67;;
1276;SDS011;631;51.024;13.826;2024-03-29T10:33:11;10.37;;;9.87;;
1276;SDS011;631;51.024;13.826;2024-03-29T10:35:37;10.90;;;10.40;;
1276;SDS011;631;51.024;13.826;2024-03-29T10:38:06;11.17;;;10.40;;
1276;SDS011;631;51.024;13.826;2024-03-29T10:40:31;8.83;;;8.43;;
1276;SDS011;631;51.024;13.826;2024-03-29T10:42:57;9.47;;;9.07;;
1276;SDS011;631;51.024;13.826;2024-03-29T10:45:25;10.17;;;9.57;;
1276;SDS011;631;51.024;13.826;2024-03-29T10:47:51;10.10;;;9.60;;
1276;SDS011;631;51.024;13.826;2024-03-29T10:50:19;10.33;;;9.87;;
1276;SDS011;631;51.024;13.826;2024-03-29T10:52:46;10.27;;;9.77;;
1276;SDS011;631;51.024;13.826;2024-03-29T10:55:13;10.90;;;10.40;;
1276;SDS011;631;51.024;13.826;2024-03-29T10:57:40;10.23;;;9.83;;
1276;SDS011;631;51.024;13.826;2024-03-29T11:00:14;10.83;;;10.33;;
1276;SDS011;631;51.024;13.826;2024-03-29T11:05:28;10.47;;;9.97;;
1276;SDS011;631;51.024;13.826;2024-03-29T11:07:56;11.10;;;10.50;;
1276;SDS011;631;51.024;13.826;2024-03-29T11:10:26;10.77;;;10.37;;
1276;SDS011;631;51.024;13.826;2024-03-29T11:15:29;11.70;;;11.03;;
1276;SDS011;631;51.024;13.826;2024-03-29T11:17:56;11.40;;;10.90;;
1276;SDS011;631;51.024;13.826;2024-03-29T11:20:26;11.00;;;10.50;;
1276;SDS011;631;51.024;13.826;2024-03-29T11:23:14;10.83;;;10.33;;
1276;SDS011;631;51.024;13.826;2024-03-29T11:25:44;10.90;;;10.40;;
1276;SDS011;631;51.024;13.826;2024-03-29T11:28:11;10.57;;;10.07;;
1276;SDS011;631;51.024;13.826;2024-03-29T11:30:42;11.00;;;10.50;;
1276;SDS011;631;51.024;13.826;2024-03-29T11:33:29;10.30;;;9.80;;
1276;SDS011;631;51.024;13.826;2024-03-29T11:35:57;10.43;;;10.00;;
1276;SDS011;631;51.024;13.826;2024-03-29T11:38:33;10.20;;;9.80;;
1276;SDS011;631;51.024;13.826;2024-03-29T11:41:07;9.97;;;9.57;;
1276;SDS011;631;51.024;13.826;2024-03-29T11:43:36;10.10;;;9.70;;
1276;SDS011;631;51.024;13.826;2024-03-29T11:46:04;10.40;;;9.90;;
1276;SDS011;631;51.024;13.826;2024-03-29T11:48:31;10.50;;;10.00;;
1276;SDS011;631;51.024;13.826;2024-03-29T11:50:57;10.90;;;10.40;;
1276;SDS011;631;51.024;13.826;2024-03-29T11:53:23;11.33;;;10.83;;
1276;SDS011;631;51.024;13.826;2024-03-29T11:55:49;10.97;;;10.33;;
1276;SDS011;631;51.024;13.826;2024-03-29T11:58:21;10.50;;;10.10;;
1276;SDS011;631;51.024;13.826;2024-03-29T12:00:47;10.40;;;9.80;;
1276;SDS011;631;51.024;13.826;2024-03-29T12:03:16;11.10;;;10.50;;
1276;SDS011;631;51.024;13.826;2024-03-29T12:05:43;10.60;;;10.10;;
1276;SDS011;631;51.024;13.826;2024-03-29T12:08:10;10.83;;;10.33;;
1276;SDS011;631;51.024;13.826;2024-03-29T12:10:36;9.50;;;9.13;;
1276;SDS011;631;51.024;13.826;2024-03-29T12:13:02;10.70;;;10.20;;
1276;SDS011;631;51.024;13.826;2024-03-29T12:15:29;10.33;;;9.90;;
1276;SDS011;631;51.024;13.826;2024-03-29T12:17:59;11.10;;;10.50;;
1276;SDS011;631;51.024;13.826;2024-03-29T12:20:30;10.90;;;10.30;;
1276;SDS011;631;51.024;13.826;2024-03-29T12:23:03;10.57;;;10.17;;
1276;SDS011;631;51.024;13.826;2024-03-29T12:25:29;10.30;;;9.80;;
1276;SDS011;631;51.024;13.826;2024-03-29T12:27:57;9.40;;;9.00;;
1276;SDS011;631;51.024;13.826;2024-03-29T12:30:23;10.70;;;10.20;;
1276;SDS011;631;51.024;13.826;2024-03-29T12:33:02;10.40;;;9.90;;
1276;SDS011;631;51.024;13.826;2024-03-29T12:35:31;9.83;;;9.43;;
1276;SDS011;631;51.024;13.826;2024-03-29T12:37:58;10.23;;;9.83;;
1276;SDS011;631;51.024;13.826;2024-03-29T12:40:25;11.13;;;10.60;;
1276;SDS011;631;51.024;13.826;2024-03-29T12:42:53;10.83;;;10.33;;
1276;SDS011;631;51.024;13.826;2024-03-29T12:45:19;10.40;;;10.00;;
1276;SDS011;631;51.024;13.826;2024-03-29T12:47:45;10.00;;;9.60;;
1276;SDS011;631;51.024;13.826;2024-03-29T12:50:28;10.57;;;10.07;;
1276;SDS011;631;51.024;13.826;2024-03-29T12:52:56;8.80;;;8.40;;
1276;SDS011;631;51.024;13.826;2024-03-29T12:55:27;10.40;;;9.90;;
1276;SDS011;631;51.024;13.826;2024-03-29T12:57:55;10.70;;;10.20;;
1276;SDS011;631;51.024;13.826;2024-03-29T13:00:21;10.03;;;9.53;;
1276;SDS011;631;51.024;13.826;2024-03-29T13:02:48;10.33;;;9.93;;
1276;SDS011;631;51.024;13.826;2024-03-29T13:05:14;10.43;;;10.03;;
1276;SDS011;631;51.024;13.826;2024-03-29T13:07:40;11.00;;;10.50;;
1276;SDS011;631;51.024;13.826;2024-03-29T13:10:06;10.17;;;9.77;;
1276;SDS011;631;51.024;13.826;2024-03-29T13:12:37;10.10;;;9.70;;
1276;SDS011;631;51.024;13.826;2024-03-29T13:15:14;10.10;;;9.60;;
1276;SDS011;631;51.024;13.826;2024-03-29T13:17:58;9.97;;;9.57;;
1276;SDS011;631;51.024;13.826;2024-03-29T13:20:25;10.03;;;9.63;;
1276;SDS011;631;51.024;13.826;2024-03-29T13:22:51;9.93;;;9.50;;
1276;SDS011;631;51.024;13.826;2024-03-29T13:25:19;9.33;;;9.00;;
1276;SDS011;631;51.024;13.826;2024-03-29T13:27:46;9.50;;;9.10;;
1276;SDS011;631;51.024;13.826;2024-03-29T13:30:13;9.97;;;9.47;;
1276;SDS011;631;51.024;13.826;2024-03-29T13:32:42;10.20;;;9.80;;
1276;SDS011;631;51.024;13.826;2024-03-29T13:35:09;9.63;;;9.23;;
1276;SDS011;631;51.024;13.826;2024-03-29T13:37:39;10.00;;;9.60;;
1276;SDS011;631;51.024;13.826;2024-03-29T13:40:12;10.10;;;9.70;;
1276;SDS011;631;51.024;13.826;2024-03-29T13:42:38;8.97;;;8.67;;
1276;SDS011;631;51.024;13.826;2024-03-29T13:45:04;9.67;;;9.30;;
1276;SDS011;631;51.024;13.826;2024-03-29T13:47:34;9.97;;;9.57;;
1276;SDS011;631;51.024;13.826;2024-03-29T13:50:01;10.10;;;9.70;;
1276;SDS011;631;51.024;13.826;2024-03-29T13:52:27;9.70;;;9.30;;
1276;SDS011;631;51.024;13.826;2024-03-29T13:54:53;10.03;;;9.63;;
1276;SDS011;631;51.024;13.826;2024-03-29T13:57:18;9.40;;;9.07;;
1276;SDS011;631;51.024;13.826;2024-03-29T13:59:44;9.83;;;9.43;;
1276;SDS011;631;51.024;13.826;2024-03-29T14:02:17;10.10;;;9.70;;
1276;SDS011;631;51.024;13.826;2024-03-29T14:04:43;9.13;;;8.83;;
1276;SDS011;631;51.024;13.826;2024-03-29T14:07:10;9.07;;;8.67;;
1276;SDS011;631;51.024;13.826;2024-03-29T14:09:39;9.97;;;9.47;;
1276;SDS011;631;51.024;13.826;2024-03-29T14:12:09;10.27;;;9.87;;
1276;SDS011;631;51.024;13.826;2024-03-29T14:14:35;10.07;;;9.67;;
1276;SDS011;631;51.024;13.826;2024-03-29T14:17:01;10.03;;;9.63;;
1276;SDS011;631;51.024;13.826;2024-03-29T14:19:29;10.50;;;10.00;;
1276;SDS011;631;51.024;13.826;2024-03-29T14:21:58;10.50;;;10.00;;
1276;SDS011;631;51.024;13.826;2024-03-29T14:24:24;10.97;;;10.47;;
1276;SDS011;631;51.024;13.826;2024-03-29T14:26:50;9.23;;;8.83;;
1276;SDS011;631;51.024;13.826;2024-03-29T14:29:20;9.90;;;9.40;;
1276;SDS011;631;51.024;13.826;2024-03-29T14:31:49;10.20;;;9.80;;
1276;SDS011;631;51.024;13.826;2024-03-29T14:34:16;10.00;;;9.50;;
1276;SDS011;631;51.024;13.826;2024-03-29T14:36:42;9.80;;;9.40;;
1276;SDS011;631;51.024;13.826;2024-03-29T14:39:08;10.53;;;10.03;;
1276;SDS011;631;51.024;13.826;2024-03-29T14:41:37;9.97;;;9.57;;
1276;SDS011;631;51.024;13.826;2024-03-29T14:44:04;9.20;;;8.80;;
1276;SDS011;631;51.024;13.826;2024-03-29T14:46:30;9.80;;;9.40;;
1276;SDS011;631;51.024;13.826;2024-03-29T14:48:56;9.33;;;8.90;;
1276;SDS011;631;51.024;13.826;2024-03-29T14:51:22;9.70;;;9.30;;
1276;SDS011;631;51.024;13.826;2024-03-29T14:53:47;10.30;;;9.80;;
1276;SDS011;631;51.024;13.826;2024-03-29T14:56:15;9.27;;;8.87;;
1276;SDS011;631;51.024;13.826;2024-03-29T14:58:43;9.40;;;9.00;;
1276;SDS011;631;51.024;13.826;2024-03-29T15:01:10;10.30;;;9.80;;
1276;SDS011;631;51.024;13.826;2024-03-29T15:03:35;10.63;;;10.13;;